Bonifay, FL

2:48 AM CDT on August 02, 2014 (GMT -0500)
APRSWXNET Bonifay FL US (ME2276) Elev 144 ft | 30.80 °N, 85.70 °W | Change Station

Current weather conditions updated 47 minutes ago

Clear
Clear
72 °F
Feels Like 72 °F
N
0
Wind Variable Wind from ENE
Gusts 0.0 mph

Today is forecast to be nearly the same temperature as yesterday. Scattered thunderstorms.

Today
High -- | Low -- °F
--% Chance of Precip.
Yesterday
High -- | Low -- °F
Precip. -- in
6:00 AM 7:36 PM
Waxing Crescent, 33% visible
Pressure 29.86 in
Visibility 7.0 miles
Clouds Clear
Dew Point 71 °F
Humidity 96%
Rainfall 0.00 in
Snow Depth Not available.
UV 0 out of 12
Pollen 4.00 out of 12
Air Quality Not available.
Flu Activity Not available.
METAR K1J0 020658Z AUTO 36003KT 7SM CLR 23/22 A2998 RMK AO2 SLP110 T02330217 PNO $

More Conditions Fewer Conditions

Pressure 29.86 in
Visibility 7.0 miles
Clouds Clear
Dew Point 71 °F
Humidity 96%
Rainfall 0.00 in
Snow Depth Not available.
UV 0 out of 12
Pollen 4.00 out of 12
Air Quality Not available.
Flu Activity Not available.
METAR K1J0 020658Z AUTO 36003KT 7SM CLR 23/22 A2998 RMK AO2 SLP110 T02330217 PNO $

More Conditions Fewer Conditions

10-Day Weather Forecast

Almanac

Astronomy

Aug. 02, 2014 Rise Set
Actual Time 6:00 AM CDT 7:36 PM CDT
Civil Twilight 5:34 AM CDT 8:02 PM CDT
Nautical Twilight 5:03 AM CDT 8:34 PM CDT
Astronomical Twilight 4:30 AM CDT 9:06 PM CDT
Moon 11:53 AM CDT 11:24 PM CDT
Length of Visible Light 14h 28m
Length of Day
13h 35m
Tomorrow will be 1m 26s shorter.
Waxing Crescent, 33% of the Moon is Illuminated
Today
Waxing Crescent
Aug 3
First Quarter
Aug 10
Full
Aug 17
Last Quarter
Aug 25
New

Today's Extremes

State Highs State Lows

Community

WunderPhotos

Upload Photos

1,739,843 photos uploaded!

Nearby

Snow Depth

Station Depth Elevation
No new snow has been reported.

Earthquake Activity

City Distance Mag. Time & Date
No recent earthquake activity has been reported nearby.
Minimum magnitude displayed is 2.5.

Coastal Water Temperatures

Place Temperature
No Stations Reporting

Nearby Weather Stations

Station Location Temp. Heat Index Dew Point Humidity Wind Precip. Elev Updated Type
APRSWXNET Bonifay FL , Caryville, FL 72 °F - 71 °F 96% ENE  at  0 mph 0.00 in / hr 144 ft 2:01 AM CDT MADIS
Bob's Backyard Weather, Bonifay, FL 72.2 °F - 71 °F 96% ENE  at  0.0 mph 0.00 in / hr 131 ft 3:40 AM EDT Normal
County Rd. 85, Hartford, AL 73.2 °F 73 °F 68 °F 83% North  at  0.0 mph 0.00 in / hr 290 ft 2:48 AM CDT Rapid Fire

Show More Stations Show Fewer Stations